Amherst, NE (68812)

7:06 AM CDT on October 02, 2014 (GMT -0500)
Regency | Change Station
CLOSE
Current Station
Personal Weather Station
Location: Kearney, NE
Elevation: 2224 ft
Nearby Weather Stations

Elev 2224 ft 40.72 °N, 99.08 °W | Updated 4 seconds ago

Overcast
Overcast
49.5 °F
Feels Like 46 °F
N
7.3
Wind Variable Wind from NNW
Gusts 11.5 mph

Today
High -- | Low -- °F
--% Chance of Precip.
Yesterday
High -- | Low -- °F
Precip. -- in
7:34 AM 7:17 PM
First Quarter, 58% visible
Pressure 29.90 in
Visibility 10.0 miles
Clouds Mostly Cloudy 10000 ft
Windchill 46 °F
Dew Point 48 °F
Humidity 95%
Rainfall 0.46 in
Snow Depth Not available.
UV 0 out of 12
Pollen .50 out of 12
Air Quality Not available.
Flu Activity Not available.
METAR KEAR 021155Z 33014KT 10SM BKN100 11/09 A2990 RMK AO1 60051 70051 10160 20110 52007

More Conditions Fewer Conditions

Pressure 29.90 in
Visibility 10.0 miles
Clouds Mostly Cloudy 10000 ft
Windchill 46 °F
Dew Point 48 °F
Humidity 95%
Rainfall 0.46 in
Snow Depth Not available.
UV 0 out of 12
Pollen .50 out of 12
Air Quality Not available.
Flu Activity Not available.
METAR KEAR 021155Z 33014KT 10SM BKN100 11/09 A2990 RMK AO1 60051 70051 10160 20110 52007

More Conditions Fewer Conditions

10-Day Weather Forecast

Almanac

Astronomy

Oct. 02, 2014 Rise Set
Actual Time 7:34 AM CDT 7:17 PM CDT
Civil Twilight 7:07 AM CDT 7:44 PM CDT
Nautical Twilight 6:35 AM CDT 8:16 PM CDT
Astronomical Twilight 6:03 AM CDT 8:48 PM CDT
Moon 3:27 PM CDT 12:50 AM CDT
Length of Visible Light 12h 37m
Length of Day
11h 42m
Tomorrow will be 2m 40s shorter.
First Quarter, 58% of the Moon is Illuminated
Today
First Quarter
Oct 8
Full
Oct 15
Last Quarter
Oct 23
New
Oct 30
First Quarter

Today's Extremes

State Highs State Lows

Community

WunderPhotos

Upload Photos

1,758,223 photos uploaded!

WunderBlogs® & News

Nearby

Snow Depth

Station Depth Elevation
No new snow has been reported.

Earthquake Activity

City Distance Mag. Time & Date
No recent earthquake activity has been reported nearby.
Minimum magnitude displayed is 2.5.

Coastal Water Temperatures

Place Temperature
No Stations Reporting

Nearby Weather Stations